Time;durP1;ratioP1;P1;durP2;ratioP2;P2;SDS_P1;SDS_P2;PMS_P1;PMS_P2;Temp;Humidity;BMP_temperature;BMP_pressure;BME280_temperature;BME280_humidity;BME280_pressure;Samples;Min_cycle;Max_cycle;Signal;HPM_P1;HPM_P2
2023/12/10 00:00:57;;;;;;;0.70;0.70;;;8.40;99.90;;;;;;5021981;28;20177;-87
2023/12/10 00:03:23;;;;;;;0.70;0.70;;;8.30;99.90;;;;;;5021487;28;20189;-84
2023/12/10 00:05:49;;;;;;;0.70;0.70;;;8.30;99.90;;;;;;5019151;28;20299;-86
2023/12/10 00:08:15;;;;;;;0.60;0.60;;;8.20;99.90;;;;;;5014896;28;20314;-86
2023/12/10 00:10:40;;;;;;;0.60;0.60;;;8.40;99.90;;;;;;5039963;28;20696;-87
2023/12/10 00:13:06;;;;;;;0.70;0.70;;;8.20;99.90;;;;;;5020571;28;20666;-88
2023/12/10 00:15:31;;;;;;;0.70;0.70;;;8.30;99.90;;;;;;5021567;28;20240;-86
2023/12/10 00:17:57;;;;;;;0.60;0.60;;;8.30;99.90;;;;;;5037632;28;20186;-86
2023/12/10 00:20:25;;;;;;;0.60;0.60;;;8.20;99.90;;;;;;5033269;28;20210;-85
2023/12/10 00:22:50;;;;;;;0.80;0.80;;;8.10;99.90;;;;;;5018385;28;20177;-85
2023/12/10 00:25:16;;;;;;;0.60;0.60;;;8.20;99.90;;;;;;5018502;28;20199;-85
2023/12/10 00:27:42;;;;;;;0.60;0.60;;;8.00;99.90;;;;;;5018985;28;20644;-87
2023/12/10 00:30:08;;;;;;;0.60;0.60;;;7.90;99.90;;;;;;5026813;28;20167;-86
2023/12/10 00:32:34;;;;;;;0.70;0.70;;;8.00;99.90;;;;;;5036977;28;20199;-85
2023/12/10 00:34:59;;;;;;;0.67;0.67;;;8.20;99.90;;;;;;5028463;28;20200;-86
2023/12/10 00:37:25;;;;;;;0.60;0.60;;;8.40;90.40;;;;;;5026989;28;20196;-86
2023/12/10 00:39:51;;;;;;;0.77;0.77;;;8.10;99.90;;;;;;5031122;28;20183;-85
2023/12/10 00:42:18;;;;;;;0.60;0.60;;;8.10;91.80;;;;;;5040470;28;20168;-86
2023/12/10 00:44:44;;;;;;;0.60;0.60;;;8.10;95.50;;;;;;5019251;28;20279;-86
2023/12/10 00:47:10;;;;;;;0.70;0.70;;;8.10;99.90;;;;;;5021081;28;20208;-85
2023/12/10 00:49:36;;;;;;;0.60;0.60;;;8.30;63.80;;;;;;5022614;28;20179;-86
2023/12/10 00:52:02;;;;;;;0.73;0.73;;;8.10;56.80;;;;;;5024620;28;20207;-86
2023/12/10 00:54:29;;;;;;;0.60;0.60;;;8.20;53.70;;;;;;5019861;28;20342;-85
2023/12/10 00:56:55;;;;;;;0.50;0.50;;;8.00;68.90;;;;;;5024464;28;20228;-86
2023/12/10 00:59:21;;;;;;;0.70;0.70;;;8.00;90.40;;;;;;5027587;28;20196;-87
2023/12/10 01:01:47;;;;;;;0.77;0.77;;;8.00;85.80;;;;;;5027293;28;20208;-88
2023/12/10 01:04:12;;;;;;;0.60;0.60;;;8.00;77.90;;;;;;5026483;28;20187;-85
2023/12/10 01:06:38;;;;;;;0.60;0.60;;;8.00;66.80;;;;;;5024152;28;20201;-88
2023/12/10 01:09:04;;;;;;;0.60;0.60;;;8.20;68.40;;;;;;5029104;28;20658;-85
2023/12/10 01:11:30;;;;;;;0.70;0.70;;;8.10;28.20;;;;;;5009068;28;20638;-85
2023/12/10 01:13:58;;;;;;;0.70;0.70;;;8.00;53.90;;;;;;5028473;28;20194;-90
2023/12/10 01:16:23;;;;;;;0.70;0.70;;;8.20;1.00;;;;;;5019854;28;20220;-87
2023/12/10 01:18:49;;;;;;;0.67;0.67;;;8.10;25.60;;;;;;5023961;28;20692;-85
2023/12/10 01:21:14;;;;;;;0.57;0.57;;;8.40;1.00;;;;;;5017801;28;20182;-84
2023/12/10 01:23:40;;;;;;;0.70;0.70;;;8.30;1.00;;;;;;5017243;28;20642;-88
2023/12/10 01:26:06;;;;;;;0.77;0.77;;;8.20;6.30;;;;;;5016871;28;20239;-85
2023/12/10 01:28:33;;;;;;;0.70;0.70;;;8.10;16.50;;;;;;5000665;28;20204;-88
2023/12/10 01:30:59;;;;;;;0.70;0.70;;;8.10;1.00;;;;;;5017862;28;20204;-85
2023/12/10 01:33:25;;;;;;;0.80;0.80;;;8.40;1.00;;;;;;5018184;28;20200;-86
2023/12/10 01:35:50;;;;;;;0.70;0.70;;;8.20;1.00;;;;;;5018289;28;20220;-86
2023/12/10 01:38:16;;;;;;;0.70;0.70;;;7.90;34.70;;;;;;5018350;28;20183;-86
2023/12/10 01:40:42;;;;;;;0.70;0.70;;;7.90;42.50;;;;;;5017409;28;20173;-89
2023/12/10 01:43:11;;;;;;;0.60;0.60;;;7.90;30.60;;;;;;5017443;28;20185;-85
2023/12/10 01:45:37;;;;;;;0.80;0.80;;;7.90;9.50;;;;;;4998783;28;20189;-85
2023/12/10 01:48:05;;;;;;;0.60;0.60;;;7.90;12.40;;;;;;5017795;28;20718;-86
2023/12/10 01:50:35;;;;;;;0.70;0.70;;;7.90;12.30;;;;;;5017634;28;20173;-86
2023/12/10 01:53:02;;;;;;;0.60;0.60;;;8.00;29.00;;;;;;5017682;28;20543;-87
2023/12/10 01:55:28;;;;;;;0.63;0.63;;;7.90;3.80;;;;;;5017185;28;20201;-86
2023/12/10 01:57:54;;;;;;;0.60;0.60;;;8.00;13.20;;;;;;5017412;28;20169;-86
2023/12/10 02:00:21;;;;;;;0.80;0.80;;;7.90;8.40;;;;;;5017286;28;20191;-86
2023/12/10 02:02:47;;;;;;;0.70;0.70;;;8.20;1.00;;;;;;5017197;28;20234;-86
2023/12/10 02:05:13;;;;;;;0.77;0.77;;;7.90;1.00;;;;;;5016718;28;20223;-86
2023/12/10 02:07:44;;;;;;;0.70;0.70;;;7.90;1.00;;;;;;5016553;28;20598;-87
2023/12/10 02:10:10;;;;;;;0.60;0.60;;;8.10;1.00;;;;;;4998487;28;20314;-85
2023/12/10 02:12:36;;;;;;;0.70;0.70;;;7.90;1.00;;;;;;5014338;28;20204;-90
2023/12/10 02:15:18;;;;;;;0.70;0.70;;;8.30;1.00;;;;;;5015388;28;20200;-88
2023/12/10 02:17:45;;;;;;;0.80;0.80;;;8.00;1.00;;;;;;5015625;28;20315;-88
2023/12/10 02:20:14;;;;;;;0.60;0.60;;;8.20;1.00;;;;;;5029462;28;20176;-88
2023/12/10 02:23:09;;;;;;;0.70;0.70;;;8.00;1.00;;;;;;5031996;28;20199;-87
2023/12/10 02:25:36;;;;;;;0.63;0.63;;;7.90;1.00;;;;;;5017134;28;20215;-88
2023/12/10 02:28:03;;;;;;;0.73;0.73;;;8.00;1.00;;;;;;5000007;28;20187;-88
2023/12/10 02:30:28;;;;;;;0.70;0.70;;;7.90;1.00;;;;;;5017560;28;20172;-87
2023/12/10 02:32:54;;;;;;;0.70;0.70;;;7.90;1.00;;;;;;5017138;28;20183;-87
2023/12/10 02:35:20;;;;;;;0.73;0.73;;;8.10;1.00;;;;;;5016253;28;20196;-88
2023/12/10 02:37:45;;;;;;;0.63;0.63;;;8.00;1.00;;;;;;5015888;28;20176;-88
2023/12/10 02:40:12;;;;;;;0.70;0.70;;;7.90;1.00;;;;;;5015319;28;20177;-88
2023/12/10 02:42:37;;;;;;;0.60;0.60;;;7.90;1.00;;;;;;5018584;28;20185;-88
2023/12/10 02:45:03;;;;;;;0.70;0.70;;;7.90;1.00;;;;;;5018692;28;20550;-88
2023/12/10 02:47:29;;;;;;;0.53;0.53;;;7.80;24.70;;;;;;5019987;28;20279;-88
2023/12/10 02:49:55;;;;;;;0.80;0.80;;;7.80;90.60;;;;;;5019788;28;20195;-88
2023/12/10 02:52:23;;;;;;;0.70;0.70;;;7.60;99.90;;;;;;5019689;28;20169;-88
2023/12/10 02:54:48;;;;;;;0.70;0.70;;;7.70;99.90;;;;;;5019222;28;20257;-88
2023/12/10 02:57:14;;;;;;;0.70;0.70;;;7.30;99.90;;;;;;5018333;28;20255;-87
2023/12/10 02:59:40;;;;;;;0.60;0.60;;;7.20;99.90;;;;;;5019137;28;20226;-87
2023/12/10 03:02:06;;;;;;;0.60;0.60;;;7.50;99.90;;;;;;5000830;28;20279;-87
2023/12/10 03:04:31;;;;;;;0.60;0.60;;;7.10;99.90;;;;;;5019048;28;20196;-88
2023/12/10 03:06:57;;;;;;;0.70;0.70;;;7.20;99.90;;;;;;5017904;28;20279;-88
2023/12/10 03:09:22;;;;;;;0.70;0.70;;;7.10;99.90;;;;;;5019082;28;20199;-89
2023/12/10 03:11:48;;;;;;;0.60;0.60;;;7.10;99.90;;;;;;5036775;28;20181;-87
2023/12/10 03:14:13;;;;;;;0.70;0.70;;;7.00;99.90;;;;;;5034989;28;20201;-86
2023/12/10 03:16:39;;;;;;;0.70;0.70;;;6.80;99.90;;;;;;5035936;28;20212;-87
2023/12/10 03:19:05;;;;;;;0.60;0.60;;;6.90;99.90;;;;;;5037813;28;20164;-86
2023/12/10 03:21:30;;;;;;;0.70;0.70;;;6.70;99.90;;;;;;5028602;28;20700;-88
2023/12/10 03:23:56;;;;;;;0.60;0.60;;;6.70;99.90;;;;;;5022275;28;20219;-87
2023/12/10 03:26:21;;;;;;;0.80;0.80;;;6.80;99.90;;;;;;5023595;28;20204;-87
2023/12/10 03:28:47;;;;;;;0.60;0.60;;;6.70;99.90;;;;;;5038687;28;20256;-87
2023/12/10 03:31:12;;;;;;;0.70;0.70;;;6.60;99.90;;;;;;5040789;28;20190;-87
2023/12/10 03:33:38;;;;;;;0.70;0.70;;;6.60;99.90;;;;;;5040561;28;20156;-87
2023/12/10 03:36:04;;;;;;;0.70;0.70;;;6.50;99.90;;;;;;5033075;28;20252;-88
2023/12/10 03:38:31;;;;;;;0.70;0.70;;;6.50;99.90;;;;;;5005216;28;20191;-88
2023/12/10 03:40:56;;;;;;;0.70;0.70;;;6.40;99.90;;;;;;5021576;28;20188;-87
2023/12/10 03:43:22;;;;;;;0.70;0.70;;;6.50;99.90;;;;;;5021726;28;20673;-87
2023/12/10 03:45:47;;;;;;;0.70;0.70;;;6.40;99.90;;;;;;5021871;28;20247;-87
2023/12/10 03:48:13;;;;;;;0.70;0.70;;;6.50;99.90;;;;;;5002284;28;20179;-86
2023/12/10 03:50:39;;;;;;;0.60;0.60;;;6.50;99.90;;;;;;5020303;28;20177;-87
2023/12/10 03:53:04;;;;;;;0.70;0.70;;;6.60;99.90;;;;;;5029772;28;20219;-86
2023/12/10 03:55:30;;;;;;;0.70;0.70;;;6.40;99.90;;;;;;5038723;28;20227;-87
2023/12/10 03:57:55;;;;;;;0.67;0.67;;;6.40;99.90;;;;;;5023526;28;20595;-88
2023/12/10 04:00:22;;;;;;;0.63;0.63;;;6.60;99.90;;;;;;5020837;28;20181;-87
2023/12/10 04:02:48;;;;;;;0.70;0.70;;;6.60;99.90;;;;;;5018419;28;20273;-88
2023/12/10 04:05:14;;;;;;;0.60;0.60;;;6.70;99.90;;;;;;5018570;28;20635;-87
2023/12/10 04:07:40;;;;;;;0.77;0.77;;;6.80;99.90;;;;;;5019094;28;20241;-86
2023/12/10 04:10:08;;;;;;;0.60;0.60;;;6.80;99.90;;;;;;5001594;28;20596;-89
2023/12/10 04:12:33;;;;;;;0.80;0.80;;;6.70;99.90;;;;;;5017897;28;20542;-88
2023/12/10 04:14:59;;;;;;;0.60;0.60;;;6.70;99.90;;;;;;5019490;28;20276;-86
2023/12/10 04:17:26;;;;;;;0.73;0.73;;;6.70;99.90;;;;;;5001247;28;20207;-88
2023/12/10 04:19:51;;;;;;;0.70;0.70;;;6.90;99.90;;;;;;5019488;28;20592;-88
2023/12/10 04:22:17;;;;;;;0.70;0.70;;;6.80;99.90;;;;;;5018807;28;20193;-87
2023/12/10 04:24:44;;;;;;;0.70;0.70;;;6.80;99.90;;;;;;5020382;28;20173;-87
2023/12/10 04:27:09;;;;;;;0.70;0.70;;;6.70;99.90;;;;;;5017172;28;20670;-88
2023/12/10 04:29:35;;;;;;;0.70;0.70;;;6.90;99.90;;;;;;5018086;28;20176;-86
2023/12/10 04:32:00;;;;;;;0.70;0.70;;;6.70;99.90;;;;;;5017632;28;20267;-89
2023/12/10 04:34:26;;;;;;;0.80;0.80;;;7.10;91.60;;;;;;5016981;28;20196;-88
2023/12/10 04:36:52;;;;;;;0.70;0.70;;;6.80;52.40;;;;;;5016611;28;20286;-89
2023/12/10 04:39:19;;;;;;;0.80;0.80;;;6.90;1.00;;;;;;5000194;28;20265;-87
2023/12/10 04:41:44;;;;;;;0.60;0.60;;;6.90;6.50;;;;;;5016818;28;20164;-87
2023/12/10 04:44:10;;;;;;;0.63;0.63;;;7.00;1.00;;;;;;5015364;28;20177;-87
2023/12/10 04:46:36;;;;;;;0.60;0.60;;;7.20;1.00;;;;;;4997843;28;20200;-86
2023/12/10 04:49:01;;;;;;;0.60;0.60;;;7.30;1.00;;;;;;4997452;28;20204;-86
2023/12/10 04:51:27;;;;;;;0.73;0.73;;;7.10;1.00;;;;;;5016030;28;20573;-86
2023/12/10 04:53:53;;;;;;;0.70;0.70;;;7.10;1.00;;;;;;5015069;28;20184;-87
2023/12/10 04:56:19;;;;;;;0.73;0.73;;;7.00;1.00;;;;;;5014014;28;20239;-89
2023/12/10 04:58:44;;;;;;;0.63;0.63;;;7.10;1.00;;;;;;5014717;28;20173;-87
2023/12/10 05:01:10;;;;;;;0.70;0.70;;;7.10;1.00;;;;;;5014532;28;20212;-90
2023/12/10 05:03:36;;;;;;;0.60;0.60;;;7.10;1.00;;;;;;4997000;28;20208;-88
2023/12/10 05:06:02;;;;;;;0.80;0.80;;;7.20;1.00;;;;;;5014175;28;20602;-87
2023/12/10 05:08:28;;;;;;;0.80;0.80;;;7.10;1.00;;;;;;5015039;28;20267;-89
2023/12/10 05:10:54;;;;;;;0.60;0.60;;;7.20;1.00;;;;;;5015670;28;20681;-87
2023/12/10 05:13:19;;;;;;;0.70;0.70;;;7.00;1.00;;;;;;5016531;28;20177;-85
2023/12/10 05:15:45;;;;;;;0.70;0.70;;;7.10;1.00;;;;;;5017387;28;20224;-86
2023/12/10 05:18:11;;;;;;;0.60;0.60;;;7.20;1.00;;;;;;5020841;28;20646;-85
2023/12/10 05:20:36;;;;;;;0.70;0.70;;;7.20;1.00;;;;;;5026398;28;20199;-88
2023/12/10 05:23:02;;;;;;;0.60;0.60;;;7.10;1.00;;;;;;5035758;28;20628;-86
2023/12/10 05:25:28;;;;;;;0.70;0.70;;;7.10;1.00;;;;;;5020949;28;20193;-86
2023/12/10 05:27:55;;;;;;;0.60;0.60;;;7.30;1.00;;;;;;5022643;28;20188;-87
2023/12/10 05:30:21;;;;;;;0.80;0.80;;;7.20;1.00;;;;;;5019515;28;20173;-88
2023/12/10 05:32:47;;;;;;;0.73;0.73;;;7.00;1.00;;;;;;5000613;28;20169;-87
2023/12/10 05:35:12;;;;;;;0.70;0.70;;;7.10;1.00;;;;;;5017272;28;20307;-88
2023/12/10 05:37:38;;;;;;;0.70;0.70;;;7.10;1.00;;;;;;5017989;28;20247;-86
2023/12/10 05:40:04;;;;;;;0.70;0.70;;;7.10;1.00;;;;;;5019275;28;20177;-88
2023/12/10 05:42:30;;;;;;;0.80;0.80;;;7.10;1.00;;;;;;5029048;28;20198;-87
2023/12/10 05:44:56;;;;;;;0.70;0.70;;;7.10;1.00;;;;;;5035538;28;20164;-87
2023/12/10 05:47:22;;;;;;;0.70;0.70;;;7.10;1.00;;;;;;5018453;28;20279;-87
2023/12/10 05:49:47;;;;;;;0.80;0.80;;;7.00;1.00;;;;;;5036467;28;20162;-87
2023/12/10 05:52:13;;;;;;;0.70;0.70;;;7.10;1.00;;;;;;5032471;28;20192;-88
2023/12/10 05:54:39;;;;;;;0.70;0.70;;;7.10;1.00;;;;;;5016748;28;20181;-86
2023/12/10 05:57:04;;;;;;;0.60;0.60;;;7.40;1.00;;;;;;5015056;28;20697;-89
2023/12/10 05:59:30;;;;;;;0.70;0.70;;;7.00;1.00;;;;;;5015366;28;20551;-86
2023/12/10 06:01:56;;;;;;;0.73;0.73;;;6.90;1.00;;;;;;5015697;28;20183;-86
2023/12/10 06:04:22;;;;;;;0.60;0.60;;;6.90;1.00;;;;;;5017009;28;20200;-86
2023/12/10 06:06:48;;;;;;;0.70;0.70;;;6.90;1.00;;;;;;5035793;28;20189;-88
2023/12/10 06:09:14;;;;;;;0.70;0.70;;;6.80;1.00;;;;;;5036108;28;20198;-86
2023/12/10 06:11:40;;;;;;;0.70;0.70;;;6.80;1.00;;;;;;5036846;28;20189;-87
2023/12/10 06:14:08;;;;;;;0.70;0.70;;;6.80;1.00;;;;;;5023392;28;20698;-86
2023/12/10 06:16:33;;;;;;;0.60;0.60;;;6.90;1.00;;;;;;5015797;28;20561;-86
2023/12/10 06:18:59;;;;;;;0.63;0.63;;;6.90;1.00;;;;;;5017510;28;20234;-88
2023/12/10 06:21:24;;;;;;;0.80;0.80;;;7.20;1.00;;;;;;5016343;28;20177;-86
2023/12/10 06:23:50;;;;;;;0.70;0.70;;;7.20;1.00;;;;;;5015567;28;20281;-85
2023/12/10 06:26:15;;;;;;;0.70;0.70;;;7.00;1.00;;;;;;5017285;28;20192;-86
2023/12/10 06:28:41;;;;;;;0.70;0.70;;;7.00;1.00;;;;;;4998952;28;20180;-88
2023/12/10 06:31:07;;;;;;;0.80;0.80;;;7.10;1.00;;;;;;5015930;28;20181;-86
2023/12/10 06:33:32;;;;;;;0.70;0.70;;;7.00;1.00;;;;;;4997546;28;20188;-86
2023/12/10 06:35:58;;;;;;;0.70;0.70;;;6.90;1.00;;;;;;5015640;28;20626;-88
2023/12/10 06:38:23;;;;;;;0.80;0.80;;;7.00;1.00;;;;;;5015288;28;20187;-90
2023/12/10 06:40:49;;;;;;;0.70;0.70;;;6.80;1.00;;;;;;5014907;28;20188;-88
2023/12/10 06:43:16;;;;;;;0.70;0.70;;;6.80;1.00;;;;;;5015361;28;20180;-89
2023/12/10 06:45:43;;;;;;;0.70;0.70;;;6.80;1.00;;;;;;5015413;28;20258;-91
2023/12/10 06:48:09;;;;;;;0.70;0.70;;;7.00;1.00;;;;;;5016260;28;20187;-92
2023/12/10 06:50:34;;;;;;;0.63;0.63;;;6.90;1.00;;;;;;5015270;28;20173;-88
2023/12/10 06:53:00;;;;;;;0.70;0.70;;;6.80;1.00;;;;;;5017246;28;20188;-88
2023/12/10 06:55:26;;;;;;;0.70;0.70;;;6.80;1.00;;;;;;5014275;28;20204;-89
2023/12/10 06:57:51;;;;;;;0.80;0.80;;;6.80;1.00;;;;;;5014327;28;20176;-89
2023/12/10 07:00:18;;;;;;;0.70;0.70;;;6.90;1.00;;;;;;5013541;28;20208;-87
2023/12/10 07:02:44;;;;;;;0.80;0.80;;;6.90;1.00;;;;;;5014008;28;20209;-87
2023/12/10 07:05:10;;;;;;;0.70;0.70;;;6.90;1.00;;;;;;5014038;28;20173;-90
2023/12/10 07:07:35;;;;;;;0.73;0.73;;;6.80;1.00;;;;;;5014625;28;20730;-87
2023/12/10 07:10:01;;;;;;;0.70;0.70;;;6.80;1.00;;;;;;5022886;28;20175;-88
2023/12/10 07:12:27;;;;;;;0.70;0.70;;;6.80;1.00;;;;;;5017871;28;20173;-89
2023/12/10 07:14:52;;;;;;;0.70;0.70;;;6.70;1.00;;;;;;5020778;28;20176;-88
2023/12/10 07:17:18;;;;;;;0.80;0.80;;;6.70;1.00;;;;;;5015353;28;20205;-91
2023/12/10 07:19:44;;;;;;;0.70;0.70;;;6.70;1.00;;;;;;4998149;28;20195;-87
2023/12/10 07:22:09;;;;;;;0.70;0.70;;;6.70;1.00;;;;;;5015964;28;20191;-88
2023/12/10 07:24:40;;;;;;;0.80;0.80;;;6.80;1.00;;;;;;4999251;28;20583;-87
2023/12/10 07:27:05;;;;;;;0.70;0.70;;;6.90;1.00;;;;;;4990742;28;20201;-89
2023/12/10 07:29:31;;;;;;;0.77;0.77;;;6.80;1.00;;;;;;5001779;28;20703;-90
2023/12/10 07:31:56;;;;;;;0.70;0.70;;;6.90;1.00;;;;;;5021046;28;20219;-88
2023/12/10 07:34:22;;;;;;;0.60;0.60;;;6.90;1.00;;;;;;5021602;28;20187;-87
2023/12/10 07:36:47;;;;;;;0.70;0.70;;;6.90;1.00;;;;;;5020247;28;20201;-89
2023/12/10 07:39:13;;;;;;;0.60;0.60;;;7.00;1.00;;;;;;5007147;28;20180;-88
2023/12/10 07:41:39;;;;;;;0.70;0.70;;;6.90;1.00;;;;;;5026012;28;20176;-89
2023/12/10 07:44:05;;;;;;;0.70;0.70;;;7.00;1.00;;;;;;5010073;28;20603;-89
2023/12/10 07:46:30;;;;;;;0.70;0.70;;;6.90;1.00;;;;;;5035869;28;20200;-87
2023/12/10 07:48:56;;;;;;;0.70;0.70;;;7.00;1.00;;;;;;5039048;28;20176;-87
2023/12/10 07:51:22;;;;;;;0.70;0.70;;;7.40;1.00;;;;;;5030209;28;20180;-87
2023/12/10 07:53:48;;;;;;;0.67;0.67;;;7.00;1.00;;;;;;5026487;28;20200;-88
2023/12/10 07:56:14;;;;;;;0.70;0.70;;;7.50;1.00;;;;;;5031888;28;20208;-88
2023/12/10 07:58:40;;;;;;;0.70;0.70;;;7.00;1.00;;;;;;5034031;28;20698;-90
2023/12/10 08:01:09;;;;;;;0.60;0.60;;;7.10;1.00;;;;;;5036834;28;20219;-88
2023/12/10 08:03:35;;;;;;;0.60;0.60;;;7.00;1.00;;;;;;5021062;28;20172;-88
2023/12/10 08:06:01;;;;;;;0.70;0.70;;;7.50;1.00;;;;;;5038128;28;20187;-90
2023/12/10 08:08:29;;;;;;;0.60;0.60;;;7.10;1.00;;;;;;5045217;28;20204;-88
2023/12/10 08:10:56;;;;;;;0.70;0.70;;;7.20;1.00;;;;;;5028003;28;20180;-90
2023/12/10 08:13:23;;;;;;;0.70;0.70;;;7.20;1.00;;;;;;5040906;28;20235;-88
2023/12/10 08:16:02;;;;;;;0.70;0.70;;;7.30;1.00;;;;;;5034338;28;20275;-87
2023/12/10 08:18:28;;;;;;;0.60;0.60;;;7.30;1.00;;;;;;5027723;28;20176;-88
2023/12/10 08:20:54;;;;;;;0.80;0.80;;;7.40;1.00;;;;;;5045375;28;20195;-87
2023/12/10 08:23:20;;;;;;;0.70;0.70;;;7.40;1.00;;;;;;5040103;28;20180;-88
2023/12/10 08:25:45;;;;;;;0.70;0.70;;;7.50;1.00;;;;;;5036275;28;20369;-85
2023/12/10 08:28:11;;;;;;;0.60;0.60;;;7.60;1.00;;;;;;5023721;28;20276;-89
2023/12/10 08:30:37;;;;;;;0.70;0.70;;;7.60;99.90;;;;;;5031119;28;20200;-88
2023/12/10 08:33:03;;;;;;;0.70;0.70;;;7.70;99.90;;;;;;5031379;28;20183;-88
2023/12/10 08:35:29;;;;;;;0.70;0.70;;;7.80;1.00;;;;;;5021788;28;20232;-87
2023/12/10 08:37:54;;;;;;;0.80;0.80;;;8.00;99.90;;;;;;5023214;28;20214;-89
2023/12/10 08:40:20;;;;;;;0.70;0.70;;;8.00;1.00;;;;;;5021508;28;20266;-91
2023/12/10 08:42:46;;;;;;;0.67;0.67;;;8.00;1.00;;;;;;5024098;28;20187;-89
2023/12/10 08:45:13;;;;;;;0.70;0.70;;;8.00;89.50;;;;;;5024071;28;20176;-90
2023/12/10 08:47:38;;;;;;;0.60;0.60;;;7.90;1.00;;;;;;5029503;28;20249;-86
2023/12/10 08:50:06;;;;;;;0.70;0.70;;;8.00;1.00;;;;;;5011132;28;20217;-90
2023/12/10 08:52:31;;;;;;;0.60;0.60;;;8.00;1.00;;;;;;5007615;28;20208;-90
2023/12/10 08:54:57;;;;;;;0.50;0.50;;;8.00;31.00;;;;;;5021461;28;20415;-89
2023/12/10 08:57:24;;;;;;;0.50;0.50;;;8.30;99.90;;;;;;5024485;28;20212;-91
2023/12/10 08:59:50;;;;;;;0.50;0.50;;;8.30;99.90;;;;;;5024922;28;20188;-87
2023/12/10 09:02:16;;;;;;;0.57;0.57;;;8.30;99.90;;;;;;5028841;28;20219;-84
2023/12/10 09:04:41;;;;;;;0.60;0.60;;;8.40;99.90;;;;;;5037128;28;20203;-89
2023/12/10 09:07:07;;;;;;;0.60;0.60;;;8.10;1.00;;;;;;5037588;28;20264;-89
2023/12/10 09:09:35;;;;;;;0.50;0.50;;;8.60;1.00;;;;;;5036197;28;20273;-86
2023/12/10 09:12:00;;;;;;;0.50;0.50;;;9.70;1.00;;;;;;5037549;28;20165;-86
2023/12/10 09:14:26;;;;;;;0.60;0.60;;;8.90;1.00;;;;;;5018754;28;20195;-90
2023/12/10 09:16:52;;;;;;;0.60;0.60;;;10.10;48.80;;;;;;5022356;28;20653;-88
2023/12/10 09:19:21;;;;;;;0.47;0.47;;;11.40;99.90;;;;;;5027089;28;20712;-91
2023/12/10 09:21:47;;;;;;;0.40;0.40;;;11.90;99.90;;;;;;5025879;28;20177;-87
2023/12/10 09:24:13;;;;;;;0.50;0.50;;;12.60;1.00;;;;;;5024655;28;20192;-87
2023/12/10 09:26:39;;;;;;;0.40;0.40;;;12.50;1.00;;;;;;5018277;28;20733;-89
2023/12/10 09:29:05;;;;;;;0.50;0.50;;;13.00;1.00;;;;;;5010770;28;20181;-89
2023/12/10 09:31:30;;;;;;;0.40;0.40;;;13.40;1.00;;;;;;5022584;28;20181;-88
2023/12/10 09:33:57;;;;;;;0.30;0.30;;;14.00;1.00;;;;;;5022485;28;20665;-89
2023/12/10 09:36:23;;;;;;;0.50;0.50;;;14.10;1.00;;;;;;5024351;28;20219;-87
2023/12/10 09:38:49;;;;;;;0.40;0.40;;;13.60;1.00;;;;;;5027989;28;20172;-89
2023/12/10 09:41:15;;;;;;;0.40;0.40;;;13.20;1.00;;;;;;5027903;28;20271;-88
2023/12/10 09:43:40;;;;;;;0.40;0.40;;;14.30;1.00;;;;;;5026810;28;20179;-90
2023/12/10 09:46:08;;;;;;;0.40;0.40;;;14.40;1.00;;;;;;5023136;28;20184;-87
2023/12/10 09:48:34;;;;;;;0.30;0.30;;;14.20;1.00;;;;;;5023879;28;20173;-89
2023/12/10 09:51:00;;;;;;;0.43;0.43;;;14.40;1.00;;;;;;5023370;28;20196;-89
2023/12/10 09:53:28;;;;;;;0.40;0.40;;;12.80;1.00;;;;;;5025032;28;20184;-87
2023/12/10 09:55:53;;;;;;;0.40;0.40;;;11.10;1.00;;;;;;5018394;28;20235;-87
2023/12/10 09:58:19;;;;;;;0.50;0.50;;;10.20;99.90;;;;;;5022234;28;20561;-86
2023/12/10 10:00:45;;;;;;;0.50;0.50;;;9.70;1.00;;;;;;5025018;28;20177;-87
2023/12/10 10:03:12;;;;;;;0.60;0.60;;;9.50;99.90;;;;;;5025992;28;20195;-88
2023/12/10 10:05:38;;;;;;;0.50;0.50;;;9.20;1.00;;;;;;5024595;28;20196;-88
2023/12/10 10:08:04;;;;;;;0.40;0.40;;;9.40;1.00;;;;;;5026259;28;20196;-88
2023/12/10 10:10:29;;;;;;;0.60;0.60;;;9.00;1.00;;;;;;5029004;28;20266;-88
2023/12/10 10:12:56;;;;;;;0.50;0.50;;;9.00;1.00;;;;;;5030450;28;20180;-86
2023/12/10 10:15:29;;;;;;;0.60;0.60;;;9.00;1.00;;;;;;5024539;28;20636;-87
2023/12/10 10:17:55;;;;;;;0.50;0.50;;;9.00;1.00;;;;;;5026751;28;20179;-87
2023/12/10 10:20:26;;;;;;;0.50;0.50;;;8.90;1.00;;;;;;5033230;28;20187;-86
2023/12/10 10:22:52;;;;;;;0.60;0.60;;;8.90;1.00;;;;;;5010867;28;20168;-88
2023/12/10 10:25:20;;;;;;;0.53;0.53;;;8.90;1.00;;;;;;5025870;28;20172;-87
2023/12/10 10:27:52;;;;;;;0.60;0.60;;;8.90;1.00;;;;;;5024725;28;20240;-88
2023/12/10 10:30:18;;;;;;;0.60;0.60;;;8.90;1.00;;;;;;5008015;28;20180;-88
2023/12/10 10:32:46;;;;;;;0.60;0.60;;;8.80;61.80;;;;;;5026520;28;20161;-85
2023/12/10 10:35:12;;;;;;;0.60;0.60;;;8.80;1.00;;;;;;5026610;28;20181;-87
2023/12/10 10:37:37;;;;;;;0.50;0.50;;;8.70;1.00;;;;;;5027114;28;20160;-88
2023/12/10 10:40:03;;;;;;;0.60;0.60;;;8.70;1.00;;;;;;5024788;28;20179;-87
2023/12/10 10:42:31;;;;;;;0.70;0.70;;;8.60;99.90;;;;;;5023052;28;20184;-90
2023/12/10 10:44:57;;;;;;;0.60;0.60;;;8.70;1.00;;;;;;5025205;28;20185;-86
2023/12/10 10:47:23;;;;;;;0.70;0.70;;;8.80;1.00;;;;;;5024844;28;20208;-88
2023/12/10 10:49:57;;;;;;;0.50;0.50;;;8.70;99.90;;;;;;5006820;28;20256;-87
2023/12/10 10:52:32;;;;;;;0.70;0.70;;;8.90;99.90;;;;;;5004564;28;20189;-88
2023/12/10 10:54:59;;;;;;;0.70;0.70;;;9.00;99.90;;;;;;5019008;28;20172;-88
2023/12/10 10:57:31;;;;;;;0.70;0.70;;;8.70;1.00;;;;;;5028709;28;20272;-90
2023/12/10 10:59:59;;;;;;;0.70;0.70;;;8.80;1.00;;;;;;5020044;28;20187;-88
2023/12/10 11:02:25;;;;;;;0.60;0.60;;;8.90;1.00;;;;;;5022852;28;20276;-88
2023/12/10 11:04:50;;;;;;;0.60;0.60;;;9.00;99.90;;;;;;5024273;28;20220;-88
2023/12/10 11:07:19;;;;;;;0.60;0.60;;;8.70;99.90;;;;;;5021117;28;20338;-88
2023/12/10 11:09:58;;;;;;;0.60;0.60;;;9.20;1.00;;;;;;5021370;28;20196;-88
2023/12/10 11:12:39;;;;;;;0.60;0.60;;;8.80;1.00;;;;;;5022996;28;20649;-91
2023/12/10 11:15:21;;;;;;;0.50;0.50;;;8.80;1.00;;;;;;5005558;28;20180;-87
2023/12/10 11:17:58;;;;;;;0.50;0.50;;;8.80;1.00;;;;;;5021976;28;20235;-88
2023/12/10 11:20:40;;;;;;;0.50;0.50;;;8.80;1.00;;;;;;5002988;28;20184;-90
2023/12/10 11:23:08;;;;;;;0.60;0.60;;;8.90;99.90;;;;;;5026430;28;20247;-90
2023/12/10 11:25:34;;;;;;;0.60;0.60;;;9.10;99.90;;;;;;5023855;28;20212;-88
2023/12/10 11:28:20;;;;;;;0.70;0.70;;;9.00;1.00;;;;;;5002747;28;20164;-88
2023/12/10 11:30:47;;;;;;;0.60;0.60;;;9.00;1.00;;;;;;5022705;28;20211;-87
2023/12/10 11:33:14;;;;;;;0.70;0.70;;;9.60;1.00;;;;;;5021636;28;20207;-89
2023/12/10 11:35:40;;;;;;;0.60;0.60;;;9.60;1.00;;;;;;5012637;28;20208;-86
2023/12/10 11:38:06;;;;;;;0.50;0.50;;;9.70;1.00;;;;;;5029995;28;20188;-88
2023/12/10 11:40:32;;;;;;;0.50;0.50;;;10.00;1.00;;;;;;5039454;28;20168;-86
2023/12/10 11:43:04;;;;;;;0.57;0.57;;;9.90;1.00;;;;;;5024497;28;20187;-86
2023/12/10 11:45:30;;;;;;;0.60;0.60;;;9.50;1.00;;;;;;5020461;28;20212;-86
2023/12/10 11:47:56;;;;;;;0.60;0.60;;;9.70;99.90;;;;;;5027439;28;20184;-89
2023/12/10 11:50:22;;;;;;;0.77;0.77;;;9.40;1.00;;;;;;5022632;28;20191;-87
2023/12/10 11:52:48;;;;;;;0.70;0.70;;;9.50;99.90;;;;;;5020812;28;20184;-91
2023/12/10 11:55:14;;;;;;;0.70;0.70;;;9.50;1.00;;;;;;5021520;28;20334;-84
2023/12/10 11:57:43;;;;;;;0.70;0.70;;;9.40;1.00;;;;;;5024765;28;20219;-88
2023/12/10 12:00:11;;;;;;;0.67;0.67;;;9.60;1.00;;;;;;5041402;28;20243;-86
2023/12/10 12:02:44;;;;;;;0.53;0.53;;;9.40;99.90;;;;;;5059202;28;20199;-88
2023/12/10 12:05:12;;;;;;;0.70;0.70;;;9.50;1.00;;;;;;5058520;28;20221;-90
2023/12/10 12:07:38;;;;;;;0.50;0.50;;;9.50;1.00;;;;;;5045731;28;20165;-90
2023/12/10 12:10:06;;;;;;;0.60;0.60;;;9.60;1.00;;;;;;5031006;28;20288;-90
2023/12/10 12:12:35;;;;;;;0.60;0.60;;;9.50;60.50;;;;;;5048378;28;20167;-89
2023/12/10 12:15:02;;;;;;;0.50;0.50;;;9.40;1.00;;;;;;5044198;28;20250;-89
2023/12/10 12:17:29;;;;;;;0.60;0.60;;;9.40;99.90;;;;;;5048405;28;20196;-87
2023/12/10 12:19:54;;;;;;;0.70;0.70;;;9.40;1.00;;;;;;5047619;28;20176;-88
2023/12/10 12:22:20;;;;;;;0.60;0.60;;;9.40;1.00;;;;;;5040110;28;20188;-87
2023/12/10 12:24:45;;;;;;;0.60;0.60;;;9.70;1.00;;;;;;5016653;28;20240;-87
2023/12/10 12:27:11;;;;;;;0.60;0.60;;;9.40;99.90;;;;;;5007716;28;20216;-88
2023/12/10 12:29:37;;;;;;;0.60;0.60;;;9.70;1.00;;;;;;5020853;28;20184;-87
2023/12/10 12:32:04;;;;;;;0.60;0.60;;;9.30;1.00;;;;;;5032531;28;20188;-88
2023/12/10 12:34:30;;;;;;;0.60;0.60;;;9.40;1.00;;;;;;5039074;28;20177;-87
2023/12/10 12:36:56;;;;;;;0.70;0.70;;;9.60;1.00;;;;;;5038496;28;20272;-87
2023/12/10 12:39:22;;;;;;;0.60;0.60;;;9.50;99.90;;;;;;5038998;28;20196;-87
2023/12/10 12:41:48;;;;;;;0.67;0.67;;;9.50;99.90;;;;;;5038239;28;20193;-87
2023/12/10 12:44:14;;;;;;;0.57;0.57;;;9.50;98.10;;;;;;5027344;28;20202;-86
2023/12/10 12:46:43;;;;;;;0.60;0.60;;;9.40;99.90;;;;;;5010227;28;20575;-87
2023/12/10 12:49:09;;;;;;;0.63;0.63;;;9.40;1.00;;;;;;5029099;28;20187;-89
2023/12/10 12:51:36;;;;;;;0.60;0.60;;;9.60;1.00;;;;;;5030205;28;20172;-87
2023/12/10 12:54:02;;;;;;;0.60;0.60;;;9.50;99.90;;;;;;5025396;28;20172;-87
2023/12/10 12:56:28;;;;;;;0.73;0.73;;;9.70;99.90;;;;;;5019836;28;20211;-88
2023/12/10 12:58:54;;;;;;;0.60;0.60;;;9.40;99.90;;;;;;5025073;28;20169;-87